createdAt,value
2019-05-22T00:00:24.418Z,13.90
2019-05-22T00:02:50.357Z,14.87
2019-05-22T00:05:16.752Z,13.53
2019-05-22T00:07:43.977Z,14.07
2019-05-22T00:10:12.495Z,14.50
2019-05-22T00:12:46.578Z,13.97
2019-05-22T00:15:07.123Z,14.43
2019-05-22T00:17:33.462Z,13.77
2019-05-22T00:20:00.418Z,15.30
2019-05-22T00:22:27.101Z,13.80
2019-05-22T00:24:53.199Z,14.97
2019-05-22T00:27:19.540Z,15.10
2019-05-22T00:29:45.668Z,13.63
2019-05-22T00:32:12.720Z,15.90
2019-05-22T00:34:38.929Z,13.80
2019-05-22T00:37:05.736Z,14.73
2019-05-22T00:39:31.826Z,14.20
2019-05-22T00:41:58.202Z,14.27
2019-05-22T00:44:24.328Z,14.00
2019-05-22T00:46:50.299Z,15.27
2019-05-22T00:49:16.400Z,14.33
2019-05-22T00:51:42.494Z,15.23
2019-05-22T00:54:09.063Z,13.07
2019-05-22T00:56:35.606Z,14.77
2019-05-22T00:59:04.968Z,14.77
2019-05-22T01:01:32.087Z,14.47
2019-05-22T01:03:58.099Z,14.37
2019-05-22T01:06:26.506Z,13.87
2019-05-22T01:08:53.157Z,15.57
2019-05-22T01:11:19.389Z,13.80
2019-05-22T01:13:46.118Z,13.77
2019-05-22T01:16:12.833Z,14.93
2019-05-22T01:18:39.399Z,14.07
2019-05-22T01:21:05.324Z,13.97
2019-05-22T01:23:31.630Z,14.90
2019-05-22T01:25:58.716Z,14.53
2019-05-22T01:28:25.259Z,13.53
2019-05-22T01:30:51.743Z,15.00
2019-05-22T01:33:17.706Z,13.73
2019-05-22T01:35:43.992Z,13.23
2019-05-22T01:38:10.141Z,14.27
2019-05-22T01:40:40.187Z,13.47
2019-05-22T01:43:06.794Z,14.10
2019-05-22T01:45:33.758Z,13.03
2019-05-22T01:48:03.517Z,13.00
2019-05-22T01:50:36.073Z,13.30
2019-05-22T01:53:02.335Z,12.43
2019-05-22T01:55:29.884Z,12.57
2019-05-22T01:57:55.859Z,12.17
2019-05-22T02:00:21.932Z,12.50
2019-05-22T02:02:48.087Z,13.37
2019-05-22T02:05:14.018Z,12.87
2019-05-22T02:07:40.541Z,12.33
2019-05-22T02:10:10.072Z,12.70
2019-05-22T02:12:48.659Z,11.80
2019-05-22T02:15:15.203Z,12.40
2019-05-22T02:17:41.713Z,13.03
2019-05-22T02:20:09.048Z,11.70
2019-05-22T02:22:36.429Z,11.73
2019-05-22T02:25:03.731Z,12.43
2019-05-22T02:27:29.892Z,11.97
2019-05-22T02:29:56.366Z,12.27
2019-05-22T02:32:24.519Z,12.20
2019-05-22T02:34:50.796Z,11.47
2019-05-22T02:37:18.885Z,11.70
2019-05-22T02:39:45.912Z,11.60
2019-05-22T02:42:15.857Z,12.67
2019-05-22T02:44:42.973Z,12.83
2019-05-22T02:47:18.682Z,12.07
2019-05-22T02:49:37.515Z,12.23
2019-05-22T02:52:04.165Z,12.10
2019-05-22T02:54:31.644Z,12.43
2019-05-22T02:56:58.881Z,12.27
2019-05-22T02:59:25.498Z,12.90
2019-05-22T03:01:51.993Z,11.67
2019-05-22T03:04:18.136Z,12.23
2019-05-22T03:06:44.142Z,12.73
2019-05-22T03:09:15.060Z,12.63
2019-05-22T03:11:58.798Z,11.43
2019-05-22T03:14:25.571Z,11.33
2019-05-22T03:16:55.454Z,11.27
2019-05-22T03:19:36.715Z,11.70
2019-05-22T03:22:21.900Z,11.33
2019-05-22T03:24:48.898Z,12.07
2019-05-22T03:27:17.808Z,12.00
2019-05-22T03:29:49.699Z,11.90
2019-05-22T03:32:16.093Z,11.27
2019-05-22T03:34:42.373Z,10.30
2019-05-22T03:37:08.746Z,10.87
2019-05-22T03:39:34.878Z,10.27
2019-05-22T03:42:00.971Z,9.90
2019-05-22T03:44:26.956Z,10.23
2019-05-22T03:46:53.527Z,10.30
2019-05-22T03:49:29.983Z,9.63
2019-05-22T03:51:47.982Z,9.60
2019-05-22T03:54:14.125Z,10.10
2019-05-22T03:56:41.019Z,10.03
2019-05-22T03:59:07.302Z,9.20
2019-05-22T04:01:34.157Z,9.17
2019-05-22T04:04:03.816Z,9.27
2019-05-22T04:06:29.935Z,10.60
2019-05-22T04:08:59.709Z,9.60
2019-05-22T04:11:29.522Z,9.53
2019-05-22T04:13:55.657Z,10.30
2019-05-22T04:16:21.977Z,10.70
2019-05-22T04:18:48.881Z,10.70
2019-05-22T04:21:15.141Z,9.57
2019-05-22T04:23:41.147Z,9.60
2019-05-22T04:26:07.930Z,9.27
2019-05-22T04:28:37.722Z,8.97
2019-05-22T04:31:03.783Z,8.43
2019-05-22T04:33:29.869Z,8.63
2019-05-22T04:35:55.910Z,8.10
2019-05-22T04:38:22.002Z,8.33
2019-05-22T04:40:49.398Z,8.57
2019-05-22T04:43:20.228Z,8.17
2019-05-22T04:45:47.430Z,8.17
2019-05-22T04:48:14.223Z,8.70
2019-05-22T04:50:40.286Z,8.03
2019-05-22T04:53:06.260Z,7.90
2019-05-22T04:55:32.572Z,9.47
2019-05-22T04:58:00.787Z,8.30
2019-05-22T05:00:27.779Z,8.33
2019-05-22T05:02:53.916Z,8.13
2019-05-22T05:05:22.002Z,6.83
2019-05-22T05:07:48.462Z,8.27
2019-05-22T05:10:14.875Z,7.77
2019-05-22T05:12:40.977Z,8.00
2019-05-22T05:15:07.574Z,7.97
2019-05-22T05:17:34.262Z,7.90
2019-05-22T05:20:00.534Z,7.33
2019-05-22T05:22:42.405Z,7.53
2019-05-22T05:25:08.802Z,8.00
2019-05-22T05:27:35.548Z,7.70
2019-05-22T05:30:02.398Z,8.10
2019-05-22T05:32:28.434Z,7.20
2019-05-22T05:34:57.164Z,8.07
2019-05-22T05:37:23.335Z,7.10
2019-05-22T05:39:53.129Z,7.27
2019-05-22T05:42:19.078Z,7.40
2019-05-22T05:44:45.303Z,7.40
2019-05-22T05:47:12.769Z,7.10
2019-05-22T05:49:38.906Z,6.87
2019-05-22T05:52:05.867Z,7.57
2019-05-22T05:54:31.813Z,7.60
2019-05-22T05:57:18.415Z,8.53
2019-05-22T05:59:44.797Z,9.30
2019-05-22T06:02:17.609Z,9.97
2019-05-22T06:04:43.575Z,9.20
2019-05-22T06:07:17.588Z,9.27
2019-05-22T06:09:46.031Z,8.80
2019-05-22T06:12:12.136Z,8.33
2019-05-22T06:14:40.511Z,8.87
2019-05-22T06:17:22.414Z,9.40
2019-05-22T06:19:55.188Z,9.17
2019-05-22T06:22:21.128Z,9.77
2019-05-22T06:24:58.208Z,9.43
2019-05-22T06:27:25.937Z,9.40
2019-05-22T06:30:02.947Z,10.47
2019-05-22T06:33:05.396Z,9.63
2019-05-22T06:35:33.065Z,10.07
2019-05-22T06:38:05.627Z,11.47
2019-05-22T06:40:32.147Z,10.73
2019-05-22T06:43:21.761Z,10.80
2019-05-22T06:45:48.304Z,11.83
2019-05-22T06:48:14.348Z,12.03
2019-05-22T06:50:40.291Z,11.30
2019-05-22T06:53:09.872Z,11.43
2019-05-22T06:55:35.280Z,11.03
2019-05-22T06:58:01.779Z,11.20
2019-05-22T07:00:28.192Z,10.93
2019-05-22T07:02:54.339Z,11.63
2019-05-22T07:05:20.836Z,11.77
2019-05-22T07:07:47.245Z,10.77
2019-05-22T07:10:13.647Z,11.30
2019-05-22T07:12:40.523Z,11.07
2019-05-22T07:15:16.216Z,10.90
2019-05-22T07:17:42.400Z,10.33
2019-05-22T07:20:08.895Z,10.97
2019-05-22T07:22:35.158Z,10.50
2019-05-22T07:25:03.480Z,11.97
2019-05-22T07:27:29.791Z,10.23
2019-05-22T07:29:56.032Z,10.87
2019-05-22T07:32:22.365Z,11.20
2019-05-22T07:34:48.660Z,10.93
2019-05-22T07:37:14.930Z,11.77
2019-05-22T07:39:41.150Z,11.53
2019-05-22T07:42:07.502Z,11.13
2019-05-22T07:44:33.783Z,11.77
2019-05-22T07:46:59.953Z,10.90
2019-05-22T07:49:26.034Z,11.80
2019-05-22T07:52:00.564Z,11.73
2019-05-22T07:54:21.122Z,11.90
2019-05-22T07:56:47.482Z,11.50
2019-05-22T07:59:14.227Z,11.43
2019-05-22T08:01:40.468Z,12.20
2019-05-22T08:04:06.986Z,10.50
2019-05-22T08:06:33.543Z,9.90
2019-05-22T08:09:01.287Z,10.10
2019-05-22T08:11:27.673Z,10.50
2019-05-22T08:13:53.699Z,10.23
2019-05-22T08:16:20.697Z,9.03
2019-05-22T08:18:47.076Z,9.57
2019-05-22T08:21:13.457Z,9.17
2019-05-22T08:23:39.826Z,9.13
2019-05-22T08:26:07.764Z,9.67
2019-05-22T08:28:35.209Z,9.60
2019-05-22T08:31:02.338Z,8.97
2019-05-22T08:33:30.628Z,9.47
2019-05-22T08:35:57.745Z,9.50
2019-05-22T08:38:28.598Z,9.67
2019-05-22T08:40:56.293Z,9.23
2019-05-22T08:43:22.722Z,9.43
2019-05-22T08:45:49.201Z,8.67
2019-05-22T08:48:15.574Z,9.57
2019-05-22T08:50:42.118Z,8.97
2019-05-22T08:53:11.810Z,9.53
2019-05-22T08:55:38.251Z,8.33
2019-05-22T08:58:05.029Z,8.00
2019-05-22T09:00:31.040Z,8.70
2019-05-22T09:02:57.285Z,7.80
2019-05-22T09:05:25.039Z,7.83
2019-05-22T09:07:51.209Z,8.20
2019-05-22T09:10:18.169Z,8.80
2019-05-22T09:12:44.369Z,7.90
2019-05-22T09:15:11.542Z,7.93
2019-05-22T09:17:37.968Z,7.57
2019-05-22T09:20:06.106Z,6.83
2019-05-22T09:22:40.603Z,7.83
2019-05-22T09:25:03.388Z,7.50
2019-05-22T09:27:30.023Z,7.43
2019-05-22T09:29:56.059Z,7.60
2019-05-22T09:32:22.251Z,7.27
2019-05-22T09:34:49.757Z,7.80
2019-05-22T09:37:15.935Z,7.87
2019-05-22T09:39:41.999Z,7.30
2019-05-22T09:42:08.344Z,7.77
2019-05-22T09:44:34.558Z,7.60
2019-05-22T09:47:01.949Z,7.60
2019-05-22T09:49:28.477Z,6.27
2019-05-22T09:51:55.302Z,6.93
2019-05-22T09:54:21.531Z,6.90
2019-05-22T09:56:48.055Z,6.47
2019-05-22T09:59:14.133Z,6.37
2019-05-22T10:01:40.227Z,7.03
2019-05-22T10:04:06.506Z,6.27
2019-05-22T10:06:32.940Z,6.90
2019-05-22T10:08:58.911Z,6.43
2019-05-22T10:11:24.864Z,6.30
2019-05-22T10:13:51.323Z,6.30
2019-05-22T10:16:17.887Z,6.13
2019-05-22T10:18:44.577Z,6.17
2019-05-22T10:21:11.624Z,6.47
2019-05-22T10:23:38.134Z,6.33
2019-05-22T10:26:04.660Z,6.20
2019-05-22T10:28:30.857Z,7.17
2019-05-22T10:30:57.915Z,6.40
2019-05-22T10:33:25.144Z,6.67
2019-05-22T10:35:51.534Z,5.77
2019-05-22T10:38:19.378Z,6.60
2019-05-22T10:40:46.326Z,6.00
2019-05-22T10:43:13.575Z,6.87
2019-05-22T10:45:39.699Z,6.40
2019-05-22T10:48:05.959Z,6.50
2019-05-22T10:50:32.845Z,6.47
2019-05-22T10:52:59.098Z,6.53
2019-05-22T10:55:25.381Z,6.50
2019-05-22T10:57:52.177Z,6.33
2019-05-22T11:00:18.912Z,6.47
2019-05-22T11:02:45.031Z,6.80
2019-05-22T11:05:11.567Z,7.17
2019-05-22T11:07:38.619Z,5.73
2019-05-22T11:10:05.605Z,6.40
2019-05-22T11:12:31.984Z,7.30
2019-05-22T11:14:57.930Z,6.50
2019-05-22T11:17:24.215Z,6.10
2019-05-22T11:19:50.795Z,6.73
2019-05-22T11:22:17.090Z,6.53
2019-05-22T11:24:43.166Z,5.70
2019-05-22T11:27:09.291Z,6.03
2019-05-22T11:29:35.483Z,6.00
2019-05-22T11:32:01.669Z,6.00
2019-05-22T11:34:27.810Z,4.80
2019-05-22T11:36:54.473Z,5.60
2019-05-22T11:39:38.153Z,7.10
2019-05-22T11:41:50.261Z,7.30
2019-05-22T11:44:17.127Z,7.00
2019-05-22T11:46:43.288Z,7.10
2019-05-22T11:49:09.850Z,6.80
2019-05-22T11:51:36.518Z,6.50
2019-05-22T11:54:09.312Z,6.57
2019-05-22T11:56:31.286Z,6.23
2019-05-22T11:58:57.648Z,6.10
2019-05-22T12:01:23.693Z,6.13
2019-05-22T12:03:49.742Z,5.90
2019-05-22T12:06:16.008Z,6.37
2019-05-22T12:08:42.087Z,5.90
2019-05-22T12:11:12.969Z,6.03
2019-05-22T12:13:39.027Z,5.60
2019-05-22T12:16:05.272Z,5.83
2019-05-22T12:18:31.354Z,5.20
2019-05-22T12:20:57.588Z,5.33
2019-05-22T12:23:23.918Z,4.83
2019-05-22T12:25:50.193Z,6.10
2019-05-22T12:28:16.348Z,5.03
2019-05-22T12:30:43.561Z,5.87
2019-05-22T12:33:13.696Z,5.90
2019-05-22T12:35:37.981Z,5.80
2019-05-22T12:38:05.068Z,5.60
2019-05-22T12:40:32.410Z,5.37
2019-05-22T12:42:59.715Z,5.27
2019-05-22T12:45:26.482Z,5.67
2019-05-22T12:47:52.752Z,5.50
2019-05-22T12:50:19.852Z,5.40
2019-05-22T12:52:48.854Z,5.10
2019-05-22T12:55:15.316Z,5.00
2019-05-22T12:57:41.460Z,5.30
2019-05-22T13:00:08.021Z,4.73
2019-05-22T13:02:35.688Z,4.60
2019-05-22T13:05:02.059Z,4.87
2019-05-22T13:07:28.571Z,4.37
2019-05-22T13:09:54.604Z,5.10
2019-05-22T13:12:20.679Z,5.00
2019-05-22T13:14:46.819Z,4.63
2019-05-22T13:17:13.253Z,4.80
2019-05-22T13:19:40.169Z,4.57
2019-05-22T13:22:10.148Z,4.97
2019-05-22T13:24:37.088Z,4.53
2019-05-22T13:27:06.128Z,5.00
2019-05-22T13:29:32.065Z,5.80
2019-05-22T13:31:59.242Z,5.40
2019-05-22T13:34:26.348Z,5.40
2019-05-22T13:36:56.679Z,5.43
2019-05-22T13:39:23.722Z,6.30
2019-05-22T13:41:50.614Z,5.93
2019-05-22T13:44:17.525Z,6.03
2019-05-22T13:46:43.871Z,5.93
2019-05-22T13:49:10.325Z,5.97
2019-05-22T13:51:38.706Z,5.93
2019-05-22T13:54:05.255Z,6.17
2019-05-22T13:56:31.534Z,6.20
2019-05-22T13:58:59.132Z,5.53
2019-05-22T14:01:25.912Z,5.90
2019-05-22T14:03:52.457Z,6.40
2019-05-22T14:06:18.742Z,5.93
2019-05-22T14:08:44.990Z,5.97
2019-05-22T14:11:11.205Z,6.23
2019-05-22T14:13:37.277Z,7.47
2019-05-22T14:16:03.915Z,5.97
2019-05-22T14:18:30.096Z,6.63
2019-05-22T14:20:56.464Z,6.53
2019-05-22T14:23:22.762Z,7.10
2019-05-22T14:25:49.386Z,6.50
2019-05-22T14:28:15.739Z,7.07
2019-05-22T14:30:42.115Z,6.13
2019-05-22T14:33:08.468Z,6.20
2019-05-22T14:35:47.806Z,6.27
2019-05-22T14:38:04.046Z,5.47
2019-05-22T14:40:30.201Z,5.50
2019-05-22T14:42:56.671Z,6.00
2019-05-22T14:45:22.933Z,5.70
2019-05-22T14:47:49.302Z,5.70
2019-05-22T14:50:16.249Z,5.07
2019-05-22T14:52:43.535Z,5.47
2019-05-22T14:55:11.139Z,5.37
2019-05-22T14:57:38.687Z,5.73
2019-05-22T15:00:07.442Z,5.13
2019-05-22T15:02:33.957Z,4.73
2019-05-22T15:05:00.226Z,5.30
2019-05-22T15:07:26.442Z,5.03
2019-05-22T15:09:52.737Z,4.17
2019-05-22T15:12:19.059Z,4.60
2019-05-22T15:14:47.196Z,3.97
2019-05-22T15:17:28.620Z,4.67
2019-05-22T15:19:41.562Z,5.60
2019-05-22T15:22:07.711Z,4.77
2019-05-22T15:24:33.892Z,5.63
2019-05-22T15:26:59.919Z,5.27
2019-05-22T15:29:26.295Z,5.73
2019-05-22T15:31:52.619Z,4.90
2019-05-22T15:34:18.854Z,5.00
2019-05-22T15:36:44.905Z,4.93
2019-05-22T15:39:12.501Z,5.30
2019-05-22T15:41:39.929Z,5.50
2019-05-22T15:44:06.215Z,5.10
2019-05-22T15:46:33.127Z,5.27
2019-05-22T15:49:02.521Z,5.40
2019-05-22T15:51:30.773Z,5.40
2019-05-22T15:54:00.412Z,4.83
2019-05-22T15:56:29.860Z,4.50
2019-05-22T15:58:56.508Z,4.73
2019-05-22T16:01:23.906Z,4.27
2019-05-22T16:03:50.801Z,4.40
2019-05-22T16:06:19.390Z,3.80
2019-05-22T16:08:45.773Z,4.33
2019-05-22T16:11:13.932Z,3.70
2019-05-22T16:13:40.750Z,3.77
2019-05-22T16:16:26.535Z,3.67
2019-05-22T16:19:03.095Z,3.60
2019-05-22T16:21:29.129Z,3.60
2019-05-22T16:23:56.715Z,3.60
2019-05-22T16:26:22.865Z,3.57
2019-05-22T16:28:49.105Z,3.53
2019-05-22T16:31:16.725Z,3.73
2019-05-22T16:33:45.890Z,3.47
2019-05-22T16:36:12.218Z,3.40
2019-05-22T16:38:39.478Z,3.03
2019-05-22T16:41:05.804Z,3.20
2019-05-22T16:43:48.710Z,3.60
2019-05-22T16:46:06.997Z,3.37
2019-05-22T16:48:33.829Z,3.23
2019-05-22T16:51:00.571Z,3.43
2019-05-22T16:53:26.813Z,3.13
2019-05-22T16:55:53.089Z,3.10
2019-05-22T16:58:19.407Z,3.00
2019-05-22T17:00:47.573Z,3.50
2019-05-22T17:03:14.664Z,3.50
2019-05-22T17:05:41.855Z,2.73
2019-05-22T17:08:08.195Z,3.50
2019-05-22T17:10:34.350Z,9.60
2019-05-22T17:13:00.954Z,5.83
2019-05-22T17:15:27.699Z,4.70
2019-05-22T17:17:54.796Z,3.90
2019-05-22T17:20:21.039Z,4.17
2019-05-22T17:22:47.411Z,4.43
2019-05-22T17:25:13.825Z,4.70
2019-05-22T17:27:42.285Z,4.50
2019-05-22T17:30:09.646Z,4.50
2019-05-22T17:32:36.095Z,4.23
2019-05-22T17:35:02.930Z,4.70
2019-05-22T17:37:29.385Z,4.10
2019-05-22T17:39:55.568Z,4.70
2019-05-22T17:42:22.964Z,5.37
2019-05-22T17:44:50.361Z,4.07
2019-05-22T17:47:17.809Z,4.10
2019-05-22T17:49:44.085Z,4.00
2019-05-22T17:52:12.249Z,4.80
2019-05-22T17:54:39.895Z,4.47
2019-05-22T17:57:06.799Z,7.63
2019-05-22T17:59:32.856Z,7.40
2019-05-22T18:01:59.577Z,5.10
2019-05-22T18:04:25.867Z,5.17
2019-05-22T18:06:52.026Z,5.60
2019-05-22T18:09:18.394Z,5.47
2019-05-22T18:11:44.384Z,4.63
2019-05-22T18:14:11.376Z,5.00
2019-05-22T18:16:37.342Z,5.00
2019-05-22T18:19:03.795Z,5.07
2019-05-22T18:21:29.970Z,4.80
2019-05-22T18:23:56.560Z,4.47
2019-05-22T18:26:23.140Z,4.83
2019-05-22T18:28:49.480Z,5.40
2019-05-22T18:31:15.809Z,5.30
2019-05-22T18:33:42.060Z,4.70
2019-05-22T18:36:08.104Z,4.60
2019-05-22T18:38:35.132Z,4.90
2019-05-22T18:41:01.104Z,4.80
2019-05-22T18:43:28.479Z,4.73
2019-05-22T18:45:54.722Z,4.90
2019-05-22T18:48:21.021Z,4.90
2019-05-22T18:50:47.267Z,5.63
2019-05-22T18:53:13.613Z,5.77
2019-05-22T18:55:41.909Z,5.50
2019-05-22T18:58:08.079Z,5.67
2019-05-22T19:00:34.296Z,6.40
2019-05-22T19:03:00.818Z,6.80
2019-05-22T19:05:29.904Z,6.30
2019-05-22T19:07:56.490Z,6.80
2019-05-22T19:10:22.919Z,7.10
2019-05-22T19:12:49.282Z,7.70
2019-05-22T19:15:15.830Z,7.77
2019-05-22T19:17:41.911Z,6.37
2019-05-22T19:20:08.788Z,7.73
2019-05-22T19:22:35.056Z,6.80
2019-05-22T19:25:01.453Z,6.97
2019-05-22T19:27:28.761Z,6.77
2019-05-22T19:29:55.193Z,8.10
2019-05-22T19:32:21.288Z,7.90
2019-05-22T19:34:47.649Z,8.00
2019-05-22T19:37:13.802Z,7.67
2019-05-22T19:39:41.217Z,7.73
2019-05-22T19:42:07.368Z,7.40
2019-05-22T19:44:33.467Z,7.50
2019-05-22T19:46:59.824Z,6.77
2019-05-22T19:49:27.374Z,6.10
2019-05-22T19:51:54.844Z,6.43
2019-05-22T19:54:21.300Z,5.97
2019-05-22T19:56:47.932Z,6.23
2019-05-22T19:59:14.093Z,6.60
2019-05-22T20:01:40.422Z,6.40
2019-05-22T20:04:06.497Z,6.57
2019-05-22T20:06:32.969Z,6.40
2019-05-22T20:08:59.556Z,6.73
2019-05-22T20:11:25.766Z,5.77
2019-05-22T20:13:52.303Z,7.53
2019-05-22T20:16:18.859Z,7.03
2019-05-22T20:18:45.333Z,6.33
2019-05-22T20:21:11.698Z,6.50
2019-05-22T20:23:37.735Z,6.47
2019-05-22T20:26:04.013Z,7.00
2019-05-22T20:28:30.160Z,7.10
2019-05-22T20:30:56.422Z,7.07
2019-05-22T20:33:26.733Z,6.77
2019-05-22T20:35:51.439Z,6.40
2019-05-22T20:38:17.557Z,7.23
2019-05-22T20:40:43.865Z,7.97
2019-05-22T20:43:10.215Z,7.70
2019-05-22T20:45:38.244Z,8.53
2019-05-22T20:48:10.101Z,8.77
2019-05-22T20:50:36.276Z,9.00
2019-05-22T20:53:02.712Z,8.80
2019-05-22T20:55:29.607Z,8.00
2019-05-22T20:57:55.868Z,8.10
2019-05-22T21:00:22.944Z,8.37
2019-05-22T21:02:52.698Z,8.20
2019-05-22T21:05:21.530Z,7.97
2019-05-22T21:07:53.960Z,8.00
2019-05-22T21:10:22.967Z,7.70
2019-05-22T21:12:48.910Z,7.93
2019-05-22T21:15:15.087Z,7.93
2019-05-22T21:17:41.899Z,7.47
2019-05-22T21:20:09.463Z,7.60
2019-05-22T21:22:35.673Z,7.40
2019-05-22T21:25:03.725Z,7.30
2019-05-22T21:27:29.710Z,7.00
2019-05-22T21:29:55.655Z,7.00
2019-05-22T21:32:21.631Z,6.83
2019-05-22T21:34:47.868Z,6.70
2019-05-22T21:37:16.402Z,6.63
2019-05-22T21:39:42.346Z,6.77
2019-05-22T21:42:08.431Z,6.27
2019-05-22T21:44:34.669Z,6.30
2019-05-22T21:47:01.165Z,6.40
2019-05-22T21:49:27.303Z,5.67
2019-05-22T21:51:53.494Z,5.87
2019-05-22T21:54:19.988Z,6.40
2019-05-22T21:56:46.283Z,6.10
2019-05-22T21:59:12.342Z,6.50
2019-05-22T22:01:38.317Z,6.07
2019-05-22T22:04:05.663Z,6.60
2019-05-22T22:06:33.324Z,7.10
2019-05-22T22:09:00.061Z,6.87
2019-05-22T22:11:27.522Z,7.57
2019-05-22T22:13:54.010Z,7.33
2019-05-22T22:16:20.042Z,6.90
2019-05-22T22:18:46.306Z,6.83
2019-05-22T22:21:13.521Z,6.57
2019-05-22T22:23:40.209Z,5.63
2019-05-22T22:26:24.206Z,5.70
2019-05-22T22:28:35.787Z,6.17
2019-05-22T22:31:02.930Z,6.37
2019-05-22T22:33:29.417Z,7.13
2019-05-22T22:35:56.053Z,7.67
2019-05-22T22:38:22.227Z,7.00
2019-05-22T22:40:50.162Z,5.70
2019-05-22T22:43:16.499Z,6.17
2019-05-22T22:45:42.875Z,7.13
2019-05-22T22:48:09.231Z,8.17
2019-05-22T22:50:36.826Z,8.93
2019-05-22T22:53:03.957Z,7.87
2019-05-22T22:55:31.042Z,6.63
2019-05-22T22:57:57.578Z,7.57
2019-05-22T23:00:23.991Z,5.47
2019-05-22T23:02:50.324Z,5.10
2019-05-22T23:05:16.421Z,5.73
2019-05-22T23:07:42.769Z,6.93
2019-05-22T23:10:11.567Z,7.37
2019-05-22T23:12:39.111Z,7.70
2019-05-22T23:15:05.574Z,8.03
2019-05-22T23:17:31.793Z,7.63
2019-05-22T23:19:57.699Z,7.73
2019-05-22T23:22:23.467Z,7.83
2019-05-22T23:24:50.510Z,7.47
2019-05-22T23:27:16.701Z,7.67
2019-05-22T23:29:42.712Z,6.30
2019-05-22T23:32:08.951Z,6.33
2019-05-22T23:34:36.101Z,6.83
2019-05-22T23:37:02.730Z,7.27
2019-05-22T23:39:28.671Z,7.97
2019-05-22T23:41:58.474Z,7.10
2019-05-22T23:44:24.445Z,8.07
2019-05-22T23:46:50.784Z,7.97
2019-05-22T23:49:16.880Z,7.47
2019-05-22T23:51:43.349Z,7.10
2019-05-22T23:54:09.525Z,7.13
2019-05-22T23:56:36.964Z,8.33
2019-05-22T23:59:03.658Z,8.73
